Winterhaven, CA

2:11 PM PDT on June 30, 2015 (GMT -0700)
RAWS | | Change Station
CLOSE
Current Station
Personal Weather Station
Location: Winterhaven, CA
Elevation: 285 ft
Nearby Weather Stations

Elev 285 ft 32.91 °N, 114.47 °W | Updated 44 minutes ago

Mostly Cloudy
Mostly Cloudy
94.0 °F
Feels Like 94.0 °F
N
13.0
Wind Variable Wind from SSW
Gusts 26.0 mph

Today
High -- | Low -- °F
--% Chance of Precip.
Yesterday
High -- | Low -- °F
Precip. -- in
5:32 AM 7:50 PM
Waxing Gibbous, 98% visible
Pressure 29.82 in
Visibility 10.0 miles
Clouds Scattered Clouds 10000 ft
Mostly Cloudy 15000 ft
Mostly Cloudy 20000 ft
Dew Point 67.0 °F
Humidity 41%
Rainfall in
Snow Depth Not available.
UV 6 out of 12
Pollen 5.60 out of 12
Air Quality Not available.
Flu Activity Sporadic
METAR KNYL 302057Z 16010KT 10SM SCT100 BKN150 BKN200 35/21 A2983 RMK AO2 SLP098 60002 T03500206 56027 $

More Conditions Fewer Conditions

Pressure 29.82 in
Visibility 10.0 miles
Clouds Scattered Clouds 10000 ft
Mostly Cloudy 15000 ft
Mostly Cloudy 20000 ft
Dew Point 67.0 °F
Humidity 41%
Rainfall in
Snow Depth Not available.
UV 6 out of 12
Pollen 5.60 out of 12
Air Quality Not available.
Flu Activity Sporadic
METAR KNYL 302057Z 16010KT 10SM SCT100 BKN150 BKN200 35/21 A2983 RMK AO2 SLP098 60002 T03500206 56027 $

More Conditions Fewer Conditions

10-Day Weather Forecast

×

Almanac

Astronomy

Jun. 30, 2015 Rise Set
Actual Time
Civil Twilight
Nautical Twilight
Astronomical Twilight
Moon
Length of Visible Light
Length of Day
Tomorrow will be .
, % of the Moon is Illuminated

Today's Extremes

State Highs State Lows

Community

WunderPhotos

Upload Photos

1,834,077 photos uploaded!

WunderBlogs® & News

Nearby

Air Quality

  Air Quality AQ Index Pollutant
Not available.

Snow Depth

Station Depth Elevation

Earthquake Activity

City Distance Mag. Time & Date
Minimum magnitude displayed is 2.5.

Coastal Water Temperatures

Place Temperature

Stations

Nearby Weather Stations

Station Location Temp. Windchill Dew Point Humidity Wind Precip. Elev Updated Type